createdAt,value
2023-03-02T00:00:16.735Z,101615.04
2023-03-02T00:03:55.838Z,101615.95
2023-03-02T00:07:29.514Z,101613.60
2023-03-02T00:10:57.396Z,101610.90
2023-03-02T00:14:26.323Z,101614.86
2023-03-02T00:17:54.476Z,101614.39
2023-03-02T00:21:21.220Z,101614.26
2023-03-02T00:24:49.252Z,101617.55
2023-03-02T00:28:16.347Z,101609.52
2023-03-02T00:31:43.319Z,101606.61
2023-03-02T00:35:11.742Z,101606.61
2023-03-02T00:38:40.063Z,101605.23
2023-03-02T00:42:07.057Z,101600.08
2023-03-02T00:45:34.004Z,101596.98
2023-03-02T00:49:05.767Z,101597.49
2023-03-02T00:52:34.752Z,101595.77
2023-03-02T00:56:05.648Z,101590.44
2023-03-02T00:59:35.060Z,101587.52
2023-03-02T01:03:19.202Z,101583.41
2023-03-02T01:06:48.785Z,101582.73
2023-03-02T01:10:16.935Z,101576.91
2023-03-02T01:13:45.472Z,101577.79
2023-03-02T01:17:13.617Z,101582.23
2023-03-02T01:20:40.893Z,101578.50
2023-03-02T01:24:09.301Z,101577.17
2023-03-02T01:27:43.065Z,101578.61
2023-03-02T01:31:17.949Z,101566.98
2023-03-02T01:34:48.198Z,101563.41
2023-03-02T01:38:16.378Z,101561.54
2023-03-02T01:41:53.726Z,101560.67
2023-03-02T01:45:53.725Z,101558.27
2023-03-02T01:49:47.853Z,101552.43
2023-03-02T01:53:20.656Z,101551.91
2023-03-02T01:56:53.098Z,101548.99
2023-03-02T02:00:36.499Z,101546.08
2023-03-02T02:04:03.537Z,101546.08
2023-03-02T02:07:31.109Z,101547.08
2023-03-02T02:11:01.859Z,101542.98
2023-03-02T02:14:30.130Z,101538.69
2023-03-02T02:18:00.651Z,101534.08
2023-03-02T02:21:29.729Z,101536.48
2023-03-02T02:25:05.225Z,101533.75
2023-03-02T02:28:39.463Z,101533.23
2023-03-02T02:32:14.087Z,101537.86
2023-03-02T02:35:41.973Z,101533.44
2023-03-02T02:39:15.968Z,101524.19
2023-03-02T02:42:50.172Z,101525.77
2023-03-02T02:46:17.651Z,101526.45
2023-03-02T02:49:45.750Z,101527.85
2023-03-02T02:53:17.604Z,101523.57
2023-03-02T02:56:46.074Z,101519.29
2023-03-02T03:00:21.924Z,101520.85
2023-03-02T03:03:54.563Z,101516.02
2023-03-02T03:07:25.869Z,101520.98
2023-03-02T03:10:54.229Z,101519.45
2023-03-02T03:14:24.994Z,101522.69
2023-03-02T03:17:57.341Z,101521.46
2023-03-02T03:21:25.018Z,101522.65
2023-03-02T03:24:52.122Z,101521.79
2023-03-02T03:28:19.632Z,101527.44
2023-03-02T03:31:46.817Z,101527.28
2023-03-02T03:35:15.164Z,101527.45
2023-03-02T03:38:43.076Z,101524.70
2023-03-02T03:42:11.370Z,101523.67
2023-03-02T03:45:38.908Z,101527.44
2023-03-02T03:49:06.457Z,101532.25
2023-03-02T03:52:33.649Z,101529.66
2023-03-02T03:56:24.214Z,101527.64
2023-03-02T03:59:52.007Z,101529.38
2023-03-02T04:03:20.304Z,101529.38
2023-03-02T04:06:47.869Z,101528.52
2023-03-02T04:10:18.721Z,101526.47
2023-03-02T04:13:46.708Z,101526.45
2023-03-02T04:17:13.741Z,101532.59
2023-03-02T04:20:45.914Z,101535.84
2023-03-02T04:24:15.008Z,101538.41
2023-03-02T04:27:44.222Z,101528.30
2023-03-02T04:31:12.530Z,101525.90
2023-03-02T04:34:39.390Z,101522.82
2023-03-02T04:38:06.685Z,101521.96
2023-03-02T04:41:34.407Z,101525.05
2023-03-02T04:45:01.193Z,101527.93
2023-03-02T04:48:27.964Z,101521.94
2023-03-02T04:51:54.601Z,101524.51
2023-03-02T04:55:24.888Z,101520.88
2023-03-02T04:58:51.389Z,101517.63
2023-03-02T05:02:18.089Z,101517.63
2023-03-02T05:05:44.710Z,101517.97
2023-03-02T05:09:11.678Z,101517.28
2023-03-02T05:12:54.876Z,101520.36
2023-03-02T05:16:22.994Z,101522.80
2023-03-02T05:19:50.891Z,101528.13
2023-03-02T05:23:25.268Z,101532.07
2023-03-02T05:26:52.284Z,101538.41
2023-03-02T05:30:20.314Z,101542.70
2023-03-02T05:33:46.986Z,101542.70
2023-03-02T05:37:13.577Z,101541.46
2023-03-02T05:40:42.605Z,101542.83
2023-03-02T05:44:12.295Z,101541.77
2023-03-02T05:47:39.123Z,101543.81
2023-03-02T05:51:06.531Z,101543.42
2023-03-02T05:54:33.585Z,101547.19
2023-03-02T05:58:00.468Z,101548.86
2023-03-02T06:01:27.830Z,101545.60
2023-03-02T06:04:54.795Z,101542.86
2023-03-02T06:08:22.858Z,101541.98
2023-03-02T06:11:49.942Z,101543.20
2023-03-02T06:15:17.546Z,101542.34
2023-03-02T06:18:44.396Z,101541.49
2023-03-02T06:22:11.074Z,101537.92
2023-03-02T06:25:41.574Z,101540.84
2023-03-02T06:29:08.799Z,101534.88
2023-03-02T06:32:35.869Z,101536.60
2023-03-02T06:36:03.160Z,101535.77
2023-03-02T06:39:30.555Z,101535.28
2023-03-02T06:42:57.219Z,101533.92
2023-03-02T06:46:23.755Z,101540.96
2023-03-02T06:49:50.734Z,101545.08
2023-03-02T06:53:18.645Z,101555.00
2023-03-02T06:56:45.447Z,101552.44
2023-03-02T07:00:17.442Z,101551.42
2023-03-02T07:03:44.640Z,101552.76
2023-03-02T07:07:11.876Z,101556.70
2023-03-02T07:10:40.043Z,101556.19
2023-03-02T07:14:06.772Z,101558.58
2023-03-02T07:17:35.771Z,101558.75
2023-03-02T07:21:02.812Z,101560.13
2023-03-02T07:24:29.566Z,101561.49
2023-03-02T07:27:56.420Z,101563.55
2023-03-02T07:31:23.541Z,101562.86
2023-03-02T07:34:50.530Z,101560.49
2023-03-02T07:38:17.486Z,101563.59
2023-03-02T07:41:44.322Z,101559.84
2023-03-02T07:45:14.539Z,101554.39
2023-03-02T07:48:42.030Z,101555.45
2023-03-02T07:52:09.015Z,101551.17
2023-03-02T07:55:35.561Z,101548.96
2023-03-02T07:59:02.787Z,101546.40
2023-03-02T08:02:29.545Z,101544.02
2023-03-02T08:05:56.231Z,101550.52
2023-03-02T08:09:22.568Z,101546.95
2023-03-02T08:12:51.726Z,101545.91
2023-03-02T08:16:20.031Z,101545.06
2023-03-02T08:19:46.982Z,101542.32
2023-03-02T08:23:13.852Z,101543.84
2023-03-02T08:26:41.119Z,101545.23
2023-03-02T08:30:10.928Z,101540.77
2023-03-02T08:33:43.954Z,101537.16
2023-03-02T08:37:11.307Z,101540.59
2023-03-02T08:40:37.939Z,101541.79
2023-03-02T08:44:05.071Z,101541.80
2023-03-02T08:47:32.812Z,101542.31
2023-03-02T08:51:01.859Z,101537.86
2023-03-02T08:54:29.107Z,101535.80
2023-03-02T08:57:56.344Z,101524.30
2023-03-02T09:01:25.467Z,101517.97
2023-03-02T09:04:52.540Z,101515.57
2023-03-02T09:08:19.583Z,101514.18
2023-03-02T09:11:47.031Z,101516.92
2023-03-02T09:15:15.222Z,101513.16
2023-03-02T09:18:42.382Z,101506.11
2023-03-02T09:22:10.135Z,101504.73
2023-03-02T09:25:36.923Z,101503.34
2023-03-02T09:29:03.867Z,101499.73
2023-03-02T09:32:30.667Z,101491.46
2023-03-02T09:35:58.110Z,101488.86
2023-03-02T09:39:25.071Z,101485.08
2023-03-02T09:43:25.777Z,101485.05
2023-03-02T09:46:55.713Z,101484.50
2023-03-02T09:50:31.980Z,101482.23
2023-03-02T09:54:05.468Z,101480.14
2023-03-02T09:57:36.292Z,101482.50
2023-03-02T10:01:05.956Z,101480.38
2023-03-02T10:04:39.077Z,101479.98
2023-03-02T10:08:06.789Z,101480.08
2023-03-02T10:11:44.932Z,101486.70
2023-03-02T10:15:18.282Z,101474.58
2023-03-02T10:18:49.497Z,101474.70
2023-03-02T10:22:24.171Z,101472.59
2023-03-02T10:25:56.011Z,101473.42
2023-03-02T10:29:41.169Z,101479.34
2023-03-02T10:33:17.461Z,101473.24
2023-03-02T10:36:47.852Z,101466.30
2023-03-02T10:40:29.939Z,101462.46
2023-03-02T10:44:00.119Z,101453.73
2023-03-02T10:47:29.553Z,101454.80
2023-03-02T10:50:59.566Z,101456.92
2023-03-02T10:54:28.451Z,101451.28
2023-03-02T10:58:06.710Z,101445.84
2023-03-02T11:01:34.651Z,101442.48
2023-03-02T11:05:20.899Z,101440.07
2023-03-02T11:08:48.199Z,101437.05
2023-03-02T11:12:19.562Z,101433.18
2023-03-02T11:15:49.419Z,101432.02
2023-03-02T11:19:19.452Z,101426.13
2023-03-02T11:22:55.468Z,101423.02
2023-03-02T11:26:26.713Z,101422.17
2023-03-02T11:29:59.309Z,101414.02
2023-03-02T11:33:32.182Z,101413.80
2023-03-02T11:37:15.634Z,101408.93
2023-03-02T11:40:48.344Z,101402.96
2023-03-02T11:44:20.025Z,101404.66
2023-03-02T11:47:57.419Z,101399.94
2023-03-02T11:51:31.228Z,101394.75
2023-03-02T11:55:03.278Z,101395.05
2023-03-02T11:58:31.694Z,101391.99
2023-03-02T12:02:00.883Z,101393.14
2023-03-02T12:05:30.483Z,101390.69
2023-03-02T12:09:09.001Z,101388.71
2023-03-02T12:12:44.369Z,101386.27
2023-03-02T12:16:24.484Z,101377.70
2023-03-02T12:19:53.120Z,101372.73
2023-03-02T12:23:27.387Z,101371.75
2023-03-02T12:27:04.234Z,101369.92
2023-03-02T12:30:40.542Z,101362.90
2023-03-02T12:34:24.814Z,101361.52
2023-03-02T12:37:57.482Z,101353.06
2023-03-02T12:41:39.233Z,101348.27
2023-03-02T12:45:16.369Z,101346.11
2023-03-02T12:48:49.114Z,101339.91
2023-03-02T12:52:31.986Z,101334.02
2023-03-02T12:55:59.509Z,101331.05
2023-03-02T12:59:29.355Z,101327.84
2023-03-02T13:02:57.970Z,101323.65
2023-03-02T13:06:27.734Z,101319.57
2023-03-02T13:09:57.430Z,101314.77
2023-03-02T13:13:27.168Z,101312.80
2023-03-02T13:17:03.553Z,101309.30
2023-03-02T13:20:31.503Z,101305.10
2023-03-02T13:24:05.132Z,101300.63
2023-03-02T13:27:34.196Z,101297.30
2023-03-02T13:31:03.983Z,101292.01
2023-03-02T13:34:32.383Z,101291.30
2023-03-02T13:38:02.802Z,101285.20
2023-03-02T13:41:31.800Z,101277.68
2023-03-02T13:44:58.717Z,101276.77
2023-03-02T13:48:31.569Z,101269.28
2023-03-02T13:52:08.138Z,101270.06
2023-03-02T13:55:36.745Z,101263.56
2023-03-02T13:59:04.625Z,101262.39
2023-03-02T14:02:33.311Z,101259.55
2023-03-02T14:06:02.652Z,101250.34
2023-03-02T14:09:29.528Z,101245.45
2023-03-02T14:13:04.678Z,101239.89
2023-03-02T14:16:32.153Z,101233.07
2023-03-02T14:19:59.246Z,101228.60
2023-03-02T14:23:26.534Z,101220.30
2023-03-02T14:26:53.520Z,101220.39
2023-03-02T14:30:22.608Z,101218.71
2023-03-02T14:33:49.858Z,101213.16
2023-03-02T14:37:19.379Z,101208.98
2023-03-02T14:40:46.822Z,101207.81
2023-03-02T14:44:16.752Z,101207.14
2023-03-02T14:47:43.626Z,101208.94
2023-03-02T14:51:21.413Z,101209.17
2023-03-02T14:54:52.595Z,101202.65
2023-03-02T14:58:21.763Z,101204.23
2023-03-02T15:01:48.729Z,101202.98
2023-03-02T15:05:21.175Z,101198.40
2023-03-02T15:08:47.471Z,101195.05
2023-03-02T15:12:14.123Z,101193.27
2023-03-02T15:15:43.396Z,101192.58
2023-03-02T15:19:10.549Z,101193.52
2023-03-02T15:22:38.861Z,101187.29
2023-03-02T15:26:06.958Z,101183.64
2023-03-02T15:29:34.398Z,101189.54
2023-03-02T15:33:02.350Z,101189.71
2023-03-02T15:36:29.725Z,101186.52
2023-03-02T15:40:02.554Z,101183.23
2023-03-02T15:43:29.728Z,101184.68
2023-03-02T15:46:59.740Z,101183.04
2023-03-02T15:50:26.415Z,101177.05
2023-03-02T15:53:53.222Z,101173.61
2023-03-02T15:57:20.196Z,101170.89
2023-03-02T16:00:48.392Z,101165.15
2023-03-02T16:04:16.064Z,101160.97
2023-03-02T16:07:44.390Z,101159.84
2023-03-02T16:11:12.338Z,101163.59
2023-03-02T16:14:40.330Z,101161.01
2023-03-02T16:18:07.792Z,101157.48
2023-03-02T16:21:37.984Z,101151.23
2023-03-02T16:25:07.399Z,101154.98
2023-03-02T16:28:34.298Z,101154.27
2023-03-02T16:32:01.022Z,101152.77
2023-03-02T16:35:29.036Z,101158.38
2023-03-02T16:38:56.077Z,101154.35
2023-03-02T16:42:23.933Z,101157.59
2023-03-02T16:45:50.834Z,101159.98
2023-03-02T16:49:17.802Z,101159.77
2023-03-02T16:52:46.543Z,101155.77
2023-03-02T16:56:14.598Z,101155.55
2023-03-02T16:59:41.245Z,101152.50
2023-03-02T17:03:08.303Z,101146.86
2023-03-02T17:06:36.356Z,101145.28
2023-03-02T17:10:03.490Z,101148.42
2023-03-02T17:13:30.727Z,101144.65
2023-03-02T17:16:58.449Z,101144.64
2023-03-02T17:20:26.333Z,101152.21
2023-03-02T17:23:53.476Z,101160.30
2023-03-02T17:27:25.362Z,101161.14
2023-03-02T17:30:53.407Z,101163.84
2023-03-02T17:34:20.558Z,101157.61
2023-03-02T17:37:48.019Z,101148.98
2023-03-02T17:41:15.758Z,101147.36
2023-03-02T17:44:44.079Z,101143.67
2023-03-02T17:48:10.841Z,101142.58
2023-03-02T17:51:37.555Z,101142.83
2023-03-02T17:55:04.834Z,101146.17
2023-03-02T17:58:44.353Z,101147.61
2023-03-02T18:02:13.200Z,101151.45
2023-03-02T18:05:40.936Z,101157.36
2023-03-02T18:09:08.586Z,101163.08
2023-03-02T18:12:35.437Z,101162.44
2023-03-02T18:16:02.721Z,101161.96
2023-03-02T18:19:30.479Z,101159.60
2023-03-02T18:22:59.442Z,101164.94
2023-03-02T18:26:26.498Z,101158.64
2023-03-02T18:29:53.608Z,101155.59
2023-03-02T18:33:20.803Z,101153.73
2023-03-02T18:36:47.925Z,101150.15
2023-03-02T18:40:15.844Z,101151.54
2023-03-02T18:43:43.922Z,101155.48
2023-03-02T18:47:11.836Z,101156.17
2023-03-02T18:50:39.976Z,101160.44
2023-03-02T18:54:07.829Z,101161.30
2023-03-02T18:57:35.087Z,101159.56
2023-03-02T19:01:02.473Z,101164.69
2023-03-02T19:04:31.274Z,101162.13
2023-03-02T19:08:00.985Z,101159.90
2023-03-02T19:11:28.387Z,101165.40
2023-03-02T19:14:56.080Z,101164.05
2023-03-02T19:18:25.407Z,101167.31
2023-03-02T19:21:52.666Z,101173.49
2023-03-02T19:25:19.684Z,101169.58
2023-03-02T19:28:46.964Z,101169.25
2023-03-02T19:32:15.024Z,101169.09
2023-03-02T19:35:55.570Z,101167.54
2023-03-02T19:39:23.098Z,101169.26
2023-03-02T19:42:57.218Z,101170.46
2023-03-02T19:46:32.607Z,101173.88
2023-03-02T19:50:02.090Z,101175.24
2023-03-02T19:53:31.702Z,101179.86
2023-03-02T19:57:03.856Z,101181.21
2023-03-02T20:00:38.916Z,101180.36
2023-03-02T20:04:09.682Z,101180.20
2023-03-02T20:07:46.865Z,101178.31
2023-03-02T20:11:23.024Z,101178.31
2023-03-02T20:14:59.198Z,101177.45
2023-03-02T20:18:33.739Z,101181.39
2023-03-02T20:22:07.508Z,101180.71
2023-03-02T20:25:40.264Z,101180.53
2023-03-02T20:29:08.456Z,101181.41
2023-03-02T20:32:38.642Z,101182.27
2023-03-02T20:36:12.475Z,101174.56
2023-03-02T20:39:44.480Z,101176.27
2023-03-02T20:43:16.087Z,101177.29
2023-03-02T20:46:49.554Z,101178.14
2023-03-02T20:50:25.926Z,101177.44
2023-03-02T20:53:54.767Z,101171.45
2023-03-02T20:57:25.656Z,101169.56
2023-03-02T21:00:56.180Z,101171.25
2023-03-02T21:04:24.778Z,101174.98
2023-03-02T21:07:54.243Z,101163.19
2023-03-02T21:11:23.819Z,101155.83
2023-03-02T21:14:51.861Z,101154.77
2023-03-02T21:18:21.519Z,101154.07
2023-03-02T21:21:55.000Z,101149.96
2023-03-02T21:25:25.871Z,101150.45
2023-03-02T21:28:58.651Z,101145.67
2023-03-02T21:32:26.713Z,101141.57
2023-03-02T21:35:59.863Z,101140.20
2023-03-02T21:39:29.858Z,101131.66
2023-03-02T21:43:10.563Z,101130.30
2023-03-02T21:46:43.548Z,101129.81
2023-03-02T21:50:15.907Z,101129.15
2023-03-02T21:53:46.547Z,101127.77
2023-03-02T21:57:14.382Z,101125.59
2023-03-02T22:00:43.357Z,101118.39
2023-03-02T22:04:11.968Z,101116.17
2023-03-02T22:07:40.043Z,101119.91
2023-03-02T22:11:12.809Z,101119.90
2023-03-02T22:14:45.458Z,101120.05
2023-03-02T22:18:18.691Z,101122.27
2023-03-02T22:21:51.570Z,101119.84
2023-03-02T22:25:22.581Z,101114.87
2023-03-02T22:28:54.819Z,101115.87
2023-03-02T22:32:27.432Z,101113.63
2023-03-02T22:36:02.362Z,101105.91
2023-03-02T22:39:41.076Z,101101.11
2023-03-02T22:43:22.594Z,101096.48
2023-03-02T22:46:50.336Z,101093.73
2023-03-02T22:50:27.481Z,101090.99
2023-03-02T22:53:56.543Z,101091.83
2023-03-02T22:57:33.017Z,101093.21
2023-03-02T23:01:00.980Z,101088.60
2023-03-02T23:04:32.631Z,101078.00
2023-03-02T23:08:17.900Z,101090.16
2023-03-02T23:11:46.316Z,101080.96
2023-03-02T23:15:21.896Z,101083.73
2023-03-02T23:18:49.413Z,101074.88
2023-03-02T23:22:16.752Z,101074.05
2023-03-02T23:25:47.645Z,101072.02
2023-03-02T23:29:16.582Z,101062.98
2023-03-02T23:32:44.360Z,101066.23
2023-03-02T23:36:13.382Z,101065.20
2023-03-02T23:39:39.766Z,101065.69
2023-03-02T23:43:07.794Z,101066.20
2023-03-02T23:46:35.659Z,101069.45
2023-03-02T23:50:02.491Z,101068.58
2023-03-02T23:53:32.028Z,101061.88
2023-03-02T23:56:58.897Z,101058.26
